sensor_id;sensor_type;location;lat;lon;timestamp;temperature;humidity
53776;DHT22;44276;49.534;6.378;2023-07-31T00:00:13;18.30;53.50
53776;DHT22;44276;49.534;6.378;2023-07-31T00:02:42;18.40;53.50
53776;DHT22;44276;49.534;6.378;2023-07-31T00:05:10;18.40;54.30
53776;DHT22;44276;49.534;6.378;2023-07-31T00:07:38;18.30;54.90
53776;DHT22;44276;49.534;6.378;2023-07-31T00:10:07;18.30;56.30
53776;DHT22;44276;49.534;6.378;2023-07-31T00:12:35;18.30;57.10
53776;DHT22;44276;49.534;6.378;2023-07-31T00:15:06;18.30;58.20
53776;DHT22;44276;49.534;6.378;2023-07-31T00:17:36;18.30;58.60
53776;DHT22;44276;49.534;6.378;2023-07-31T00:20:05;18.30;60.00
53776;DHT22;44276;49.534;6.378;2023-07-31T00:22:35;18.30;59.50
53776;DHT22;44276;49.534;6.378;2023-07-31T00:25:04;18.20;60.10
53776;DHT22;44276;49.534;6.378;2023-07-31T00:27:33;18.20;60.30
53776;DHT22;44276;49.534;6.378;2023-07-31T00:30:01;18.20;59.10
53776;DHT22;44276;49.534;6.378;2023-07-31T00:32:29;18.20;60.30
53776;DHT22;44276;49.534;6.378;2023-07-31T00:34:59;18.20;61.70
53776;DHT22;44276;49.534;6.378;2023-07-31T00:37:27;18.10;62.50
53776;DHT22;44276;49.534;6.378;2023-07-31T00:39:55;18.10;64.20
53776;DHT22;44276;49.534;6.378;2023-07-31T00:42:24;18.00;67.60
53776;DHT22;44276;49.534;6.378;2023-07-31T00:44:52;18.00;64.50
53776;DHT22;44276;49.534;6.378;2023-07-31T00:47:20;18.00;63.80
53776;DHT22;44276;49.534;6.378;2023-07-31T00:49:48;18.00;66.30
53776;DHT22;44276;49.534;6.378;2023-07-31T00:52:18;17.90;68.10
53776;DHT22;44276;49.534;6.378;2023-07-31T00:54:48;17.80;69.40
53776;DHT22;44276;49.534;6.378;2023-07-31T00:57:17;17.80;72.10
53776;DHT22;44276;49.534;6.378;2023-07-31T00:59:45;17.60;73.20
53776;DHT22;44276;49.534;6.378;2023-07-31T01:02:13;17.60;76.70
53776;DHT22;44276;49.534;6.378;2023-07-31T01:04:45;17.50;81.50
53776;DHT22;44276;49.534;6.378;2023-07-31T01:07:22;17.40;81.50
53776;DHT22;44276;49.534;6.378;2023-07-31T01:10:03;17.30;86.30
53776;DHT22;44276;49.534;6.378;2023-07-31T01:12:37;17.20;91.30
53776;DHT22;44276;49.534;6.378;2023-07-31T01:15:07;17.10;93.70
53776;DHT22;44276;49.534;6.378;2023-07-31T01:17:38;16.90;95.50
53776;DHT22;44276;49.534;6.378;2023-07-31T01:20:11;16.90;97.40
53776;DHT22;44276;49.534;6.378;2023-07-31T01:22:59;16.80;98.80
53776;DHT22;44276;49.534;6.378;2023-07-31T01:26:03;16.90;97.90
53776;DHT22;44276;49.534;6.378;2023-07-31T01:28:43;16.90;98.80
53776;DHT22;44276;49.534;6.378;2023-07-31T01:31:20;16.90;98.60
53776;DHT22;44276;49.534;6.378;2023-07-31T01:33:53;16.90;97.60
53776;DHT22;44276;49.534;6.378;2023-07-31T01:36:24;17.00;97.00
53776;DHT22;44276;49.534;6.378;2023-07-31T01:38:57;16.90;96.40
53776;DHT22;44276;49.534;6.378;2023-07-31T01:41:28;16.90;96.00
53776;DHT22;44276;49.534;6.378;2023-07-31T01:43:56;16.90;97.10
53776;DHT22;44276;49.534;6.378;2023-07-31T01:46:24;16.80;97.30
53776;DHT22;44276;49.534;6.378;2023-07-31T01:48:53;16.80;98.50
53776;DHT22;44276;49.534;6.378;2023-07-31T01:51:21;16.80;98.40
53776;DHT22;44276;49.534;6.378;2023-07-31T01:53:49;16.80;97.90
53776;DHT22;44276;49.534;6.378;2023-07-31T01:56:17;16.80;98.60
53776;DHT22;44276;49.534;6.378;2023-07-31T01:58:46;16.80;98.90
53776;DHT22;44276;49.534;6.378;2023-07-31T02:01:14;16.80;98.80
53776;DHT22;44276;49.534;6.378;2023-07-31T02:03:43;16.80;99.40
53776;DHT22;44276;49.534;6.378;2023-07-31T02:06:11;16.80;99.10
53776;DHT22;44276;49.534;6.378;2023-07-31T02:08:39;16.80;98.30
53776;DHT22;44276;49.534;6.378;2023-07-31T02:11:07;16.90;97.80
53776;DHT22;44276;49.534;6.378;2023-07-31T02:13:35;16.90;99.10
53776;DHT22;44276;49.534;6.378;2023-07-31T02:16:05;16.90;99.90
53776;DHT22;44276;49.534;6.378;2023-07-31T02:18:33;16.90;99.90
53776;DHT22;44276;49.534;6.378;2023-07-31T02:21:01;16.80;99.90
53776;DHT22;44276;49.534;6.378;2023-07-31T02:23:29;16.80;99.90
53776;DHT22;44276;49.534;6.378;2023-07-31T02:25:58;16.70;99.90
53776;DHT22;44276;49.534;6.378;2023-07-31T02:28:26;16.70;99.90
53776;DHT22;44276;49.534;6.378;2023-07-31T02:30:54;16.70;99.90
53776;DHT22;44276;49.534;6.378;2023-07-31T02:33:24;16.70;99.90
53776;DHT22;44276;49.534;6.378;2023-07-31T02:35:52;16.60;99.90
53776;DHT22;44276;49.534;6.378;2023-07-31T02:38:20;16.60;99.90
53776;DHT22;44276;49.534;6.378;2023-07-31T02:40:48;16.50;99.90
53776;DHT22;44276;49.534;6.378;2023-07-31T02:43:16;16.50;99.90
53776;DHT22;44276;49.534;6.378;2023-07-31T02:45:44;16.40;99.90
53776;DHT22;44276;49.534;6.378;2023-07-31T02:48:13;16.40;99.90
53776;DHT22;44276;49.534;6.378;2023-07-31T02:50:42;16.30;99.90
53776;DHT22;44276;49.534;6.378;2023-07-31T02:53:10;16.30;99.90
53776;DHT22;44276;49.534;6.378;2023-07-31T02:55:38;16.30;99.90
53776;DHT22;44276;49.534;6.378;2023-07-31T02:58:06;16.30;99.90
53776;DHT22;44276;49.534;6.378;2023-07-31T03:00:35;16.30;99.90
53776;DHT22;44276;49.534;6.378;2023-07-31T03:03:03;16.20;99.90
53776;DHT22;44276;49.534;6.378;2023-07-31T03:05:31;16.30;99.90
53776;DHT22;44276;49.534;6.378;2023-07-31T03:08:01;16.30;99.90
53776;DHT22;44276;49.534;6.378;2023-07-31T03:10:30;16.20;99.90
53776;DHT22;44276;49.534;6.378;2023-07-31T03:12:58;16.20;99.90
53776;DHT22;44276;49.534;6.378;2023-07-31T03:15:26;16.20;99.90
53776;DHT22;44276;49.534;6.378;2023-07-31T03:17:54;16.20;99.90
53776;DHT22;44276;49.534;6.378;2023-07-31T03:20:22;16.20;99.90
53776;DHT22;44276;49.534;6.378;2023-07-31T03:22:51;16.20;99.90
53776;DHT22;44276;49.534;6.378;2023-07-31T03:25:20;16.10;99.90
53776;DHT22;44276;49.534;6.378;2023-07-31T03:27:48;16.10;99.90
53776;DHT22;44276;49.534;6.378;2023-07-31T03:30:16;16.10;99.90
53776;DHT22;44276;49.534;6.378;2023-07-31T03:32:45;16.10;99.90
53776;DHT22;44276;49.534;6.378;2023-07-31T03:35:13;16.10;99.90
53776;DHT22;44276;49.534;6.378;2023-07-31T03:37:41;16.00;99.90
53776;DHT22;44276;49.534;6.378;2023-07-31T03:40:10;16.00;99.90
53776;DHT22;44276;49.534;6.378;2023-07-31T03:42:40;15.90;99.90
53776;DHT22;44276;49.534;6.378;2023-07-31T03:45:09;15.90;99.90
53776;DHT22;44276;49.534;6.378;2023-07-31T03:47:37;15.90;99.90
53776;DHT22;44276;49.534;6.378;2023-07-31T03:50:06;15.80;99.90
53776;DHT22;44276;49.534;6.378;2023-07-31T03:52:35;15.70;99.90
53776;DHT22;44276;49.534;6.378;2023-07-31T03:55:04;15.70;99.90
53776;DHT22;44276;49.534;6.378;2023-07-31T03:57:33;15.80;99.90
53776;DHT22;44276;49.534;6.378;2023-07-31T04:00:02;15.80;99.90
53776;DHT22;44276;49.534;6.378;2023-07-31T04:02:31;15.80;99.90
53776;DHT22;44276;49.534;6.378;2023-07-31T04:04:59;15.70;99.90
53776;DHT22;44276;49.534;6.378;2023-07-31T04:07:28;15.70;99.90
53776;DHT22;44276;49.534;6.378;2023-07-31T04:09:57;15.70;99.90
53776;DHT22;44276;49.534;6.378;2023-07-31T04:12:25;15.60;99.90
53776;DHT22;44276;49.534;6.378;2023-07-31T04:14:53;15.60;99.90
53776;DHT22;44276;49.534;6.378;2023-07-31T04:17:23;15.60;99.90
53776;DHT22;44276;49.534;6.378;2023-07-31T04:19:51;15.70;99.90
53776;DHT22;44276;49.534;6.378;2023-07-31T04:22:19;15.70;99.90
53776;DHT22;44276;49.534;6.378;2023-07-31T04:24:47;15.70;99.90
53776;DHT22;44276;49.534;6.378;2023-07-31T04:27:15;15.70;99.90
53776;DHT22;44276;49.534;6.378;2023-07-31T04:29:43;15.80;99.90
53776;DHT22;44276;49.534;6.378;2023-07-31T04:32:13;15.90;99.90
53776;DHT22;44276;49.534;6.378;2023-07-31T04:34:44;15.90;99.90
53776;DHT22;44276;49.534;6.378;2023-07-31T04:37:12;15.90;99.90
53776;DHT22;44276;49.534;6.378;2023-07-31T04:39:40;16.00;99.90
53776;DHT22;44276;49.534;6.378;2023-07-31T04:42:08;16.00;99.90
53776;DHT22;44276;49.534;6.378;2023-07-31T04:44:37;16.00;99.90
53776;DHT22;44276;49.534;6.378;2023-07-31T04:47:05;16.10;99.90
53776;DHT22;44276;49.534;6.378;2023-07-31T04:49:33;16.10;99.90
53776;DHT22;44276;49.534;6.378;2023-07-31T04:52:03;16.20;99.90
53776;DHT22;44276;49.534;6.378;2023-07-31T04:54:32;16.30;99.90
53776;DHT22;44276;49.534;6.378;2023-07-31T04:57:00;16.30;99.90
53776;DHT22;44276;49.534;6.378;2023-07-31T04:59:28;16.40;99.90
53776;DHT22;44276;49.534;6.378;2023-07-31T05:01:58;16.50;99.90
53776;DHT22;44276;49.534;6.378;2023-07-31T05:04:26;16.50;99.90
53776;DHT22;44276;49.534;6.378;2023-07-31T05:06:54;16.60;99.90
53776;DHT22;44276;49.534;6.378;2023-07-31T05:09:24;16.70;99.90
53776;DHT22;44276;49.534;6.378;2023-07-31T05:11:52;16.70;99.90
53776;DHT22;44276;49.534;6.378;2023-07-31T05:14:20;16.80;99.90
53776;DHT22;44276;49.534;6.378;2023-07-31T05:16:48;16.90;99.90
53776;DHT22;44276;49.534;6.378;2023-07-31T05:19:16;16.90;99.90
53776;DHT22;44276;49.534;6.378;2023-07-31T05:21:44;16.90;99.90
53776;DHT22;44276;49.534;6.378;2023-07-31T05:24:13;17.00;99.90
53776;DHT22;44276;49.534;6.378;2023-07-31T05:26:42;17.00;99.90
53776;DHT22;44276;49.534;6.378;2023-07-31T05:29:10;17.00;99.90
53776;DHT22;44276;49.534;6.378;2023-07-31T05:31:39;17.10;99.90
53776;DHT22;44276;49.534;6.378;2023-07-31T05:34:07;17.10;99.90
53776;DHT22;44276;49.534;6.378;2023-07-31T05:36:35;17.10;99.90
53776;DHT22;44276;49.534;6.378;2023-07-31T05:39:04;17.20;99.90
53776;DHT22;44276;49.534;6.378;2023-07-31T05:41:35;17.20;99.90
53776;DHT22;44276;49.534;6.378;2023-07-31T05:44:05;17.20;99.90
53776;DHT22;44276;49.534;6.378;2023-07-31T05:46:33;17.20;99.90
53776;DHT22;44276;49.534;6.378;2023-07-31T05:49:02;17.50;99.90
53776;DHT22;44276;49.534;6.378;2023-07-31T05:51:30;18.30;92.60
53776;DHT22;44276;49.534;6.378;2023-07-31T05:53:58;18.60;78.70
53776;DHT22;44276;49.534;6.378;2023-07-31T05:56:26;18.60;84.50
53776;DHT22;44276;49.534;6.378;2023-07-31T05:58:54;18.80;82.00
53776;DHT22;44276;49.534;6.378;2023-07-31T06:01:25;19.50;68.50
53776;DHT22;44276;49.534;6.378;2023-07-31T06:03:53;20.40;55.50
53776;DHT22;44276;49.534;6.378;2023-07-31T06:06:21;20.60;50.20
53776;DHT22;44276;49.534;6.378;2023-07-31T06:08:50;20.60;50.70
53776;DHT22;44276;49.534;6.378;2023-07-31T06:11:20;20.40;51.00
53776;DHT22;44276;49.534;6.378;2023-07-31T06:13:49;20.80;49.60
53776;DHT22;44276;49.534;6.378;2023-07-31T06:16:17;20.80;49.50
53776;DHT22;44276;49.534;6.378;2023-07-31T06:18:47;20.50;48.40
53776;DHT22;44276;49.534;6.378;2023-07-31T06:21:15;20.80;48.90
53776;DHT22;44276;49.534;6.378;2023-07-31T06:23:44;20.70;48.40
53776;DHT22;44276;49.534;6.378;2023-07-31T06:26:12;20.50;48.80
53776;DHT22;44276;49.534;6.378;2023-07-31T06:28:41;20.10;51.60
53776;DHT22;44276;49.534;6.378;2023-07-31T06:31:09;19.90;57.30
53776;DHT22;44276;49.534;6.378;2023-07-31T06:33:38;19.80;58.60
53776;DHT22;44276;49.534;6.378;2023-07-31T06:36:07;19.50;58.10
53776;DHT22;44276;49.534;6.378;2023-07-31T06:38:35;19.30;63.80
53776;DHT22;44276;49.534;6.378;2023-07-31T06:41:04;19.30;62.80
53776;DHT22;44276;49.534;6.378;2023-07-31T06:43:32;19.30;63.90
53776;DHT22;44276;49.534;6.378;2023-07-31T06:46:04;19.50;64.20
53776;DHT22;44276;49.534;6.378;2023-07-31T06:48:33;19.80;60.80
53776;DHT22;44276;49.534;6.378;2023-07-31T06:51:03;20.00;55.10
53776;DHT22;44276;49.534;6.378;2023-07-31T06:53:33;19.90;56.10
53776;DHT22;44276;49.534;6.378;2023-07-31T06:56:01;20.10;55.30
53776;DHT22;44276;49.534;6.378;2023-07-31T06:58:29;20.50;53.60
53776;DHT22;44276;49.534;6.378;2023-07-31T07:00:57;20.70;51.10
53776;DHT22;44276;49.534;6.378;2023-07-31T07:03:25;21.40;46.10
53776;DHT22;44276;49.534;6.378;2023-07-31T07:05:53;22.00;40.90
53776;DHT22;44276;49.534;6.378;2023-07-31T07:08:21;22.30;39.30
53776;DHT22;44276;49.534;6.378;2023-07-31T07:10:54;22.30;39.00
53776;DHT22;44276;49.534;6.378;2023-07-31T07:13:22;23.00;35.70
53776;DHT22;44276;49.534;6.378;2023-07-31T07:15:51;23.60;33.50
53776;DHT22;44276;49.534;6.378;2023-07-31T07:18:19;24.50;31.90
53776;DHT22;44276;49.534;6.378;2023-07-31T07:20:49;25.10;30.00
53776;DHT22;44276;49.534;6.378;2023-07-31T07:23:19;25.60;28.00
53776;DHT22;44276;49.534;6.378;2023-07-31T07:25:48;25.00;29.00
53776;DHT22;44276;49.534;6.378;2023-07-31T07:28:17;24.80;27.50
53776;DHT22;44276;49.534;6.378;2023-07-31T07:30:51;24.30;28.90
53776;DHT22;44276;49.534;6.378;2023-07-31T07:33:20;24.10;28.50
53776;DHT22;44276;49.534;6.378;2023-07-31T07:35:48;24.10;29.40
53776;DHT22;44276;49.534;6.378;2023-07-31T07:38:16;24.20;29.50
53776;DHT22;44276;49.534;6.378;2023-07-31T07:40:45;23.80;29.90
53776;DHT22;44276;49.534;6.378;2023-07-31T07:43:18;23.50;30.90
53776;DHT22;44276;49.534;6.378;2023-07-31T07:45:46;23.20;31.70
53776;DHT22;44276;49.534;6.378;2023-07-31T07:48:14;22.70;32.70
53776;DHT22;44276;49.534;6.378;2023-07-31T07:50:44;22.40;34.40
53776;DHT22;44276;49.534;6.378;2023-07-31T07:53:12;22.00;34.80
53776;DHT22;44276;49.534;6.378;2023-07-31T07:55:40;21.50;36.70
53776;DHT22;44276;49.534;6.378;2023-07-31T07:58:08;21.70;37.40
53776;DHT22;44276;49.534;6.378;2023-07-31T08:00:38;22.20;36.30
53776;DHT22;44276;49.534;6.378;2023-07-31T08:03:06;22.70;34.90
53776;DHT22;44276;49.534;6.378;2023-07-31T08:05:34;23.20;32.00
53776;DHT22;44276;49.534;6.378;2023-07-31T08:08:03;23.00;32.30
53776;DHT22;44276;49.534;6.378;2023-07-31T08:10:31;22.50;34.90
53776;DHT22;44276;49.534;6.378;2023-07-31T08:12:59;22.80;33.40
53776;DHT22;44276;49.534;6.378;2023-07-31T08:15:27;23.00;31.80
53776;DHT22;44276;49.534;6.378;2023-07-31T08:17:57;23.30;31.60
53776;DHT22;44276;49.534;6.378;2023-07-31T08:20:26;24.10;31.30
53776;DHT22;44276;49.534;6.378;2023-07-31T08:22:55;24.10;30.00
53776;DHT22;44276;49.534;6.378;2023-07-31T08:25:23;23.30;30.60
53776;DHT22;44276;49.534;6.378;2023-07-31T08:27:51;23.00;31.50
53776;DHT22;44276;49.534;6.378;2023-07-31T08:30:20;22.90;32.40
53776;DHT22;44276;49.534;6.378;2023-07-31T08:32:49;23.00;33.60
53776;DHT22;44276;49.534;6.378;2023-07-31T08:35:19;23.10;32.60
53776;DHT22;44276;49.534;6.378;2023-07-31T08:37:47;23.10;32.10
53776;DHT22;44276;49.534;6.378;2023-07-31T08:40:15;23.30;31.70
53776;DHT22;44276;49.534;6.378;2023-07-31T08:42:44;23.10;31.70
53776;DHT22;44276;49.534;6.378;2023-07-31T08:45:14;22.90;33.10
53776;DHT22;44276;49.534;6.378;2023-07-31T08:47:45;22.70;34.10
53776;DHT22;44276;49.534;6.378;2023-07-31T08:50:16;22.50;33.10
53776;DHT22;44276;49.534;6.378;2023-07-31T08:52:48;22.20;34.30
53776;DHT22;44276;49.534;6.378;2023-07-31T08:55:18;22.00;33.20
53776;DHT22;44276;49.534;6.378;2023-07-31T08:57:51;21.90;35.20
53776;DHT22;44276;49.534;6.378;2023-07-31T09:00:20;22.00;35.70
53776;DHT22;44276;49.534;6.378;2023-07-31T09:02:56;22.00;33.80
53776;DHT22;44276;49.534;6.378;2023-07-31T09:05:29;21.80;33.60
53776;DHT22;44276;49.534;6.378;2023-07-31T09:07:58;21.90;34.60
53776;DHT22;44276;49.534;6.378;2023-07-31T09:10:29;22.00;35.10
53776;DHT22;44276;49.534;6.378;2023-07-31T09:12:58;22.10;34.20
53776;DHT22;44276;49.534;6.378;2023-07-31T09:15:27;22.20;34.40
53776;DHT22;44276;49.534;6.378;2023-07-31T09:18:05;22.20;32.20
53776;DHT22;44276;49.534;6.378;2023-07-31T09:20:36;22.20;33.00
53776;DHT22;44276;49.534;6.378;2023-07-31T09:23:07;22.70;33.30
53776;DHT22;44276;49.534;6.378;2023-07-31T09:25:36;22.90;30.00
53776;DHT22;44276;49.534;6.378;2023-07-31T09:28:06;22.70;29.60
53776;DHT22;44276;49.534;6.378;2023-07-31T09:30:47;22.80;30.00
53776;DHT22;44276;49.534;6.378;2023-07-31T09:33:17;22.80;29.60
53776;DHT22;44276;49.534;6.378;2023-07-31T09:35:47;22.80;29.40
53776;DHT22;44276;49.534;6.378;2023-07-31T09:38:16;22.70;30.30
53776;DHT22;44276;49.534;6.378;2023-07-31T09:40:45;22.80;29.90
53776;DHT22;44276;49.534;6.378;2023-07-31T09:43:18;23.30;30.90
53776;DHT22;44276;49.534;6.378;2023-07-31T09:45:48;23.10;28.80
53776;DHT22;44276;49.534;6.378;2023-07-31T09:48:23;23.20;30.00
53776;DHT22;44276;49.534;6.378;2023-07-31T09:50:55;22.90;29.70
53776;DHT22;44276;49.534;6.378;2023-07-31T09:53:28;22.90;29.80
53776;DHT22;44276;49.534;6.378;2023-07-31T09:55:58;22.90;29.40
53776;DHT22;44276;49.534;6.378;2023-07-31T09:58:28;22.80;29.80
53776;DHT22;44276;49.534;6.378;2023-07-31T10:00:58;22.30;29.70
53776;DHT22;44276;49.534;6.378;2023-07-31T10:03:27;22.10;30.50
53776;DHT22;44276;49.534;6.378;2023-07-31T10:06:02;22.00;31.30
53776;DHT22;44276;49.534;6.378;2023-07-31T10:08:35;21.90;30.80
53776;DHT22;44276;49.534;6.378;2023-07-31T10:11:05;22.00;31.70
53776;DHT22;44276;49.534;6.378;2023-07-31T10:13:35;22.10;31.10
53776;DHT22;44276;49.534;6.378;2023-07-31T10:16:04;22.00;30.90
53776;DHT22;44276;49.534;6.378;2023-07-31T10:18:34;22.10;32.10
53776;DHT22;44276;49.534;6.378;2023-07-31T10:21:05;22.50;30.80
53776;DHT22;44276;49.534;6.378;2023-07-31T10:23:34;22.40;31.90
53776;DHT22;44276;49.534;6.378;2023-07-31T10:26:04;22.30;30.00
53776;DHT22;44276;49.534;6.378;2023-07-31T10:28:36;21.80;32.00
53776;DHT22;44276;49.534;6.378;2023-07-31T10:31:06;21.50;33.50
53776;DHT22;44276;49.534;6.378;2023-07-31T10:33:34;21.40;33.70
53776;DHT22;44276;49.534;6.378;2023-07-31T10:36:16;21.10;33.80
53776;DHT22;44276;49.534;6.378;2023-07-31T10:38:48;21.00;35.90
53776;DHT22;44276;49.534;6.378;2023-07-31T10:41:17;21.10;35.90
53776;DHT22;44276;49.534;6.378;2023-07-31T10:43:46;21.30;35.20
53776;DHT22;44276;49.534;6.378;2023-07-31T10:46:15;21.30;35.80
53776;DHT22;44276;49.534;6.378;2023-07-31T10:48:43;21.10;35.70
53776;DHT22;44276;49.534;6.378;2023-07-31T10:51:13;21.00;36.70
53776;DHT22;44276;49.534;6.378;2023-07-31T10:53:43;21.10;36.80
53776;DHT22;44276;49.534;6.378;2023-07-31T10:56:11;21.20;36.40
53776;DHT22;44276;49.534;6.378;2023-07-31T10:58:45;21.10;37.80
53776;DHT22;44276;49.534;6.378;2023-07-31T11:01:13;21.20;38.70
53776;DHT22;44276;49.534;6.378;2023-07-31T11:03:43;21.40;36.90
53776;DHT22;44276;49.534;6.378;2023-07-31T11:06:17;21.30;37.40
53776;DHT22;44276;49.534;6.378;2023-07-31T11:08:46;21.30;36.20
53776;DHT22;44276;49.534;6.378;2023-07-31T11:11:17;21.30;38.00
53776;DHT22;44276;49.534;6.378;2023-07-31T11:13:47;21.20;38.10
53776;DHT22;44276;49.534;6.378;2023-07-31T11:16:18;21.20;37.60
53776;DHT22;44276;49.534;6.378;2023-07-31T11:18:48;21.10;37.30
53776;DHT22;44276;49.534;6.378;2023-07-31T11:21:21;21.20;37.30
53776;DHT22;44276;49.534;6.378;2023-07-31T11:23:52;21.50;36.40
53776;DHT22;44276;49.534;6.378;2023-07-31T11:26:25;21.80;34.40
53776;DHT22;44276;49.534;6.378;2023-07-31T11:28:53;21.80;35.80
53776;DHT22;44276;49.534;6.378;2023-07-31T11:31:21;21.80;34.00
53776;DHT22;44276;49.534;6.378;2023-07-31T11:33:50;21.80;34.60
53776;DHT22;44276;49.534;6.378;2023-07-31T11:36:20;21.80;34.50
53776;DHT22;44276;49.534;6.378;2023-07-31T11:38:48;21.70;35.00
53776;DHT22;44276;49.534;6.378;2023-07-31T11:41:17;21.60;35.20
53776;DHT22;44276;49.534;6.378;2023-07-31T11:43:46;21.40;35.60
53776;DHT22;44276;49.534;6.378;2023-07-31T11:46:15;21.30;36.50
53776;DHT22;44276;49.534;6.378;2023-07-31T11:48:44;21.40;35.50
53776;DHT22;44276;49.534;6.378;2023-07-31T11:51:14;21.60;37.70
53776;DHT22;44276;49.534;6.378;2023-07-31T11:53:47;21.60;36.60
53776;DHT22;44276;49.534;6.378;2023-07-31T11:56:18;21.30;38.30
53776;DHT22;44276;49.534;6.378;2023-07-31T11:58:51;21.10;40.90
53776;DHT22;44276;49.534;6.378;2023-07-31T12:01:21;21.00;41.10
53776;DHT22;44276;49.534;6.378;2023-07-31T12:03:52;20.90;42.90
53776;DHT22;44276;49.534;6.378;2023-07-31T12:06:20;20.80;45.30
53776;DHT22;44276;49.534;6.378;2023-07-31T12:08:50;20.80;61.30
53776;DHT22;44276;49.534;6.378;2023-07-31T12:11:18;19.70;99.90
53776;DHT22;44276;49.534;6.378;2023-07-31T12:13:47;18.80;99.90
53776;DHT22;44276;49.534;6.378;2023-07-31T12:16:32;18.30;99.90
53776;DHT22;44276;49.534;6.378;2023-07-31T12:19:01;18.00;99.90
53776;DHT22;44276;49.534;6.378;2023-07-31T12:21:30;17.90;99.90
53776;DHT22;44276;49.534;6.378;2023-07-31T12:23:59;18.10;99.90
53776;DHT22;44276;49.534;6.378;2023-07-31T12:26:34;18.20;99.90
53776;DHT22;44276;49.534;6.378;2023-07-31T12:29:07;18.40;99.90
53776;DHT22;44276;49.534;6.378;2023-07-31T12:31:35;18.60;99.90
53776;DHT22;44276;49.534;6.378;2023-07-31T12:34:03;18.90;99.90
53776;DHT22;44276;49.534;6.378;2023-07-31T12:36:43;19.30;99.90
53776;DHT22;44276;49.534;6.378;2023-07-31T12:39:13;19.80;93.90
53776;DHT22;44276;49.534;6.378;2023-07-31T12:41:42;20.30;78.30
53776;DHT22;44276;49.534;6.378;2023-07-31T12:44:10;20.50;70.00
53776;DHT22;44276;49.534;6.378;2023-07-31T12:46:39;21.00;63.90
53776;DHT22;44276;49.534;6.378;2023-07-31T12:49:07;21.50;59.50
53776;DHT22;44276;49.534;6.378;2023-07-31T12:51:36;22.10;53.60
53776;DHT22;44276;49.534;6.378;2023-07-31T12:54:04;22.20;48.70
53776;DHT22;44276;49.534;6.378;2023-07-31T12:56:34;22.00;48.00
53776;DHT22;44276;49.534;6.378;2023-07-31T12:59:02;21.70;44.80
53776;DHT22;44276;49.534;6.378;2023-07-31T13:01:30;21.60;46.90
53776;DHT22;44276;49.534;6.378;2023-07-31T13:03:59;21.80;46.30
53776;DHT22;44276;49.534;6.378;2023-07-31T13:06:27;21.70;45.90
53776;DHT22;44276;49.534;6.378;2023-07-31T13:08:55;21.90;44.60
53776;DHT22;44276;49.534;6.378;2023-07-31T13:11:23;22.20;44.50
53776;DHT22;44276;49.534;6.378;2023-07-31T13:13:53;22.60;40.40
53776;DHT22;44276;49.534;6.378;2023-07-31T13:16:21;23.30;38.50
53776;DHT22;44276;49.534;6.378;2023-07-31T13:18:49;24.10;35.40
53776;DHT22;44276;49.534;6.378;2023-07-31T13:21:18;24.50;32.90
53776;DHT22;44276;49.534;6.378;2023-07-31T13:23:48;24.50;31.20
53776;DHT22;44276;49.534;6.378;2023-07-31T13:26:16;24.30;32.20
53776;DHT22;44276;49.534;6.378;2023-07-31T13:28:44;24.20;32.20
53776;DHT22;44276;49.534;6.378;2023-07-31T13:31:14;24.40;31.00
53776;DHT22;44276;49.534;6.378;2023-07-31T13:33:42;24.50;30.70
53776;DHT22;44276;49.534;6.378;2023-07-31T13:36:10;24.80;30.20
53776;DHT22;44276;49.534;6.378;2023-07-31T13:38:40;24.60;30.60
53776;DHT22;44276;49.534;6.378;2023-07-31T13:41:08;24.30;30.50
53776;DHT22;44276;49.534;6.378;2023-07-31T13:43:37;23.40;32.30
53776;DHT22;44276;49.534;6.378;2023-07-31T13:46:05;22.90;36.80
53776;DHT22;44276;49.534;6.378;2023-07-31T13:48:36;22.50;36.50
53776;DHT22;44276;49.534;6.378;2023-07-31T13:51:04;22.30;40.90
53776;DHT22;44276;49.534;6.378;2023-07-31T13:53:32;21.70;52.70
53776;DHT22;44276;49.534;6.378;2023-07-31T13:56:00;21.00;65.80
53776;DHT22;44276;49.534;6.378;2023-07-31T13:58:29;20.40;80.80
53776;DHT22;44276;49.534;6.378;2023-07-31T14:00:57;19.80;96.50
53776;DHT22;44276;49.534;6.378;2023-07-31T14:03:25;19.50;99.90
53776;DHT22;44276;49.534;6.378;2023-07-31T14:05:57;19.30;99.90
53776;DHT22;44276;49.534;6.378;2023-07-31T14:08:25;19.20;99.90
53776;DHT22;44276;49.534;6.378;2023-07-31T14:10:53;19.10;99.90
53776;DHT22;44276;49.534;6.378;2023-07-31T14:13:21;19.20;99.90
53776;DHT22;44276;49.534;6.378;2023-07-31T14:15:49;19.10;99.90
53776;DHT22;44276;49.534;6.378;2023-07-31T14:18:18;19.20;99.90
53776;DHT22;44276;49.534;6.378;2023-07-31T14:20:47;19.20;99.90
53776;DHT22;44276;49.534;6.378;2023-07-31T14:23:16;19.30;99.90
53776;DHT22;44276;49.534;6.378;2023-07-31T14:25:46;19.30;99.90
53776;DHT22;44276;49.534;6.378;2023-07-31T14:28:14;19.20;99.90
53776;DHT22;44276;49.534;6.378;2023-07-31T14:30:42;19.30;99.90
53776;DHT22;44276;49.534;6.378;2023-07-31T14:33:11;19.30;99.90
53776;DHT22;44276;49.534;6.378;2023-07-31T14:35:39;19.20;99.90
53776;DHT22;44276;49.534;6.378;2023-07-31T14:38:07;19.20;99.90
53776;DHT22;44276;49.534;6.378;2023-07-31T14:40:37;19.20;99.90
53776;DHT22;44276;49.534;6.378;2023-07-31T14:43:05;19.30;99.90
53776;DHT22;44276;49.534;6.378;2023-07-31T14:45:33;19.40;99.90
53776;DHT22;44276;49.534;6.378;2023-07-31T14:48:01;19.50;99.90
53776;DHT22;44276;49.534;6.378;2023-07-31T14:50:30;19.60;99.90
53776;DHT22;44276;49.534;6.378;2023-07-31T14:52:58;19.70;99.90
53776;DHT22;44276;49.534;6.378;2023-07-31T14:55:27;19.80;99.90
53776;DHT22;44276;49.534;6.378;2023-07-31T14:57:56;19.40;99.90
53776;DHT22;44276;49.534;6.378;2023-07-31T15:00:24;19.20;99.90
53776;DHT22;44276;49.534;6.378;2023-07-31T15:02:54;19.00;99.90
53776;DHT22;44276;49.534;6.378;2023-07-31T15:05:24;19.00;99.90
53776;DHT22;44276;49.534;6.378;2023-07-31T15:07:52;18.90;99.90
53776;DHT22;44276;49.534;6.378;2023-07-31T15:10:20;18.90;99.90
53776;DHT22;44276;49.534;6.378;2023-07-31T15:12:48;19.00;99.90
53776;DHT22;44276;49.534;6.378;2023-07-31T15:15:18;19.00;99.90
53776;DHT22;44276;49.534;6.378;2023-07-31T15:17:46;19.00;99.90
53776;DHT22;44276;49.534;6.378;2023-07-31T15:20:15;19.00;99.90
53776;DHT22;44276;49.534;6.378;2023-07-31T15:22:43;19.00;99.90
53776;DHT22;44276;49.534;6.378;2023-07-31T15:25:11;19.10;99.90
53776;DHT22;44276;49.534;6.378;2023-07-31T15:27:39;19.20;99.90
53776;DHT22;44276;49.534;6.378;2023-07-31T15:30:09;19.30;99.90
53776;DHT22;44276;49.534;6.378;2023-07-31T15:32:39;19.40;99.90
53776;DHT22;44276;49.534;6.378;2023-07-31T15:35:07;19.30;99.90
53776;DHT22;44276;49.534;6.378;2023-07-31T15:37:36;19.20;99.90
53776;DHT22;44276;49.534;6.378;2023-07-31T15:40:04;19.10;99.90
53776;DHT22;44276;49.534;6.378;2023-07-31T15:42:33;19.00;99.90